createdAt,value
2022-10-17T00:01:31.719Z,16.80
2022-10-17T00:03:58.588Z,16.70
2022-10-17T00:06:25.271Z,16.70
2022-10-17T00:08:52.000Z,16.70
2022-10-17T00:11:21.610Z,16.60
2022-10-17T00:13:50.046Z,16.60
2022-10-17T00:16:24.324Z,16.60
2022-10-17T00:18:51.038Z,16.60
2022-10-17T00:21:19.274Z,16.70
2022-10-17T00:23:46.754Z,16.60
2022-10-17T00:26:14.203Z,16.60
2022-10-17T00:28:41.012Z,16.50
2022-10-17T00:31:08.112Z,16.50
2022-10-17T00:33:35.802Z,16.50
2022-10-17T00:36:14.626Z,16.50
2022-10-17T00:38:43.292Z,16.40
2022-10-17T00:41:12.228Z,16.30
2022-10-17T00:44:05.848Z,16.20
2022-10-17T00:46:37.525Z,16.20
2022-10-17T00:49:09.898Z,16.10
2022-10-17T00:51:49.221Z,16.00
2022-10-17T00:54:17.759Z,16.00
2022-10-17T00:56:46.169Z,15.90
2022-10-17T00:59:14.159Z,15.90
2022-10-17T01:01:41.885Z,15.80
2022-10-17T01:04:08.933Z,15.90
2022-10-17T01:06:35.630Z,15.80
2022-10-17T01:09:02.318Z,15.80
2022-10-17T01:11:57.084Z,15.70
2022-10-17T01:15:02.674Z,15.60
2022-10-17T01:17:32.402Z,15.60
2022-10-17T01:20:40.218Z,15.60
2022-10-17T01:23:30.957Z,15.70
2022-10-17T01:26:25.276Z,15.70
2022-10-17T01:29:13.640Z,15.80
2022-10-17T01:32:08.781Z,15.90
2022-10-17T01:35:19.345Z,16.00
2022-10-17T01:38:04.813Z,16.00
2022-10-17T01:40:37.241Z,16.10
2022-10-17T01:43:08.816Z,16.10
2022-10-17T01:45:48.469Z,16.10
2022-10-17T01:48:20.183Z,16.00
2022-10-17T01:50:52.130Z,15.90
2022-10-17T01:53:26.881Z,15.90
2022-10-17T01:55:54.564Z,15.90
2022-10-17T01:58:26.910Z,15.90
2022-10-17T02:00:55.095Z,15.90
2022-10-17T02:03:22.238Z,15.90
2022-10-17T02:05:48.963Z,15.90
2022-10-17T02:08:28.871Z,16.00
2022-10-17T02:11:00.460Z,16.00
2022-10-17T02:13:27.071Z,16.10
2022-10-17T02:16:13.513Z,16.10
2022-10-17T02:19:08.107Z,16.20
2022-10-17T02:22:00.993Z,16.20
2022-10-17T02:24:40.190Z,16.20
2022-10-17T02:27:35.784Z,16.30
2022-10-17T02:30:20.566Z,16.20
2022-10-17T02:32:55.662Z,16.30
2022-10-17T02:35:22.878Z,16.30
2022-10-17T02:37:51.395Z,16.30
2022-10-17T02:40:19.154Z,16.30
2022-10-17T02:42:46.422Z,16.30
2022-10-17T02:45:15.264Z,16.40
2022-10-17T02:47:46.661Z,16.20
2022-10-17T02:50:13.429Z,16.20
2022-10-17T02:52:41.297Z,16.20
2022-10-17T02:55:20.095Z,16.20
2022-10-17T02:57:55.368Z,16.20
2022-10-17T03:00:23.094Z,16.20
2022-10-17T03:02:51.891Z,16.20
2022-10-17T03:05:21.398Z,16.20
2022-10-17T03:07:48.415Z,16.20
2022-10-17T03:10:15.727Z,16.20
2022-10-17T03:12:42.612Z,16.20
2022-10-17T03:15:10.174Z,16.20
2022-10-17T03:17:37.202Z,16.20
2022-10-17T03:20:05.004Z,16.10
2022-10-17T03:22:32.359Z,16.10
2022-10-17T03:24:59.285Z,16.20
2022-10-17T03:27:26.083Z,16.20
2022-10-17T03:29:52.806Z,16.10
2022-10-17T03:32:19.524Z,16.20
2022-10-17T03:34:46.267Z,16.20
2022-10-17T03:37:12.988Z,16.20
2022-10-17T03:39:39.721Z,16.20
2022-10-17T03:42:06.495Z,16.20
2022-10-17T03:44:33.142Z,16.30
2022-10-17T03:46:59.797Z,16.30
2022-10-17T03:49:26.582Z,16.40
2022-10-17T03:51:53.238Z,16.40
2022-10-17T03:54:19.982Z,16.50
2022-10-17T03:56:46.743Z,16.50
2022-10-17T03:59:14.446Z,16.50
2022-10-17T04:01:41.490Z,16.50
2022-10-17T04:04:09.063Z,16.50
2022-10-17T04:06:36.519Z,16.50
2022-10-17T04:09:04.072Z,16.50
2022-10-17T04:11:30.825Z,16.50
2022-10-17T04:13:59.308Z,16.40
2022-10-17T04:16:26.407Z,16.40
2022-10-17T04:18:58.031Z,16.40
2022-10-17T04:21:26.369Z,16.40
2022-10-17T04:23:56.911Z,16.40
2022-10-17T04:26:23.838Z,16.40
2022-10-17T04:28:50.993Z,16.30
2022-10-17T04:31:18.645Z,16.30
2022-10-17T04:33:47.940Z,16.40
2022-10-17T04:36:17.240Z,16.50
2022-10-17T04:38:44.290Z,16.50
2022-10-17T04:41:13.375Z,16.60
2022-10-17T04:43:40.545Z,16.70
2022-10-17T04:46:12.578Z,16.70
2022-10-17T04:48:40.102Z,16.70
2022-10-17T04:51:09.116Z,16.80
2022-10-17T04:53:37.260Z,16.80
2022-10-17T04:56:13.644Z,16.90
2022-10-17T04:58:41.611Z,16.90
2022-10-17T05:01:10.192Z,16.90
2022-10-17T05:03:37.052Z,16.90
2022-10-17T05:06:17.374Z,17.00
2022-10-17T05:08:44.644Z,17.00
2022-10-17T05:11:23.277Z,17.00
2022-10-17T05:13:55.008Z,17.00
2022-10-17T05:16:22.693Z,16.90
2022-10-17T05:18:52.949Z,16.90
2022-10-17T05:21:21.023Z,17.00
2022-10-17T05:23:47.784Z,16.90
2022-10-17T05:26:14.694Z,16.90
2022-10-17T05:28:41.530Z,16.90
2022-10-17T05:31:09.591Z,16.90
2022-10-17T05:33:37.097Z,16.90
2022-10-17T05:36:04.448Z,16.90
2022-10-17T05:38:31.434Z,16.90
2022-10-17T05:40:59.483Z,16.90
2022-10-17T05:43:26.975Z,16.90
2022-10-17T05:45:54.311Z,16.90
2022-10-17T05:48:21.872Z,16.90
2022-10-17T05:50:48.903Z,16.90
2022-10-17T05:53:16.780Z,16.90
2022-10-17T05:55:43.553Z,17.20
2022-10-17T05:58:17.670Z,16.80
2022-10-17T06:00:49.092Z,16.80
2022-10-17T06:03:15.742Z,16.80
2022-10-17T06:05:42.567Z,16.70
2022-10-17T06:08:09.419Z,16.70
2022-10-17T06:10:36.171Z,16.70
2022-10-17T06:13:02.868Z,16.70
2022-10-17T06:15:29.611Z,16.70
2022-10-17T06:17:56.279Z,16.60
2022-10-17T06:20:23.013Z,16.60
2022-10-17T06:22:49.743Z,16.50
2022-10-17T06:25:16.517Z,16.50
2022-10-17T06:27:43.329Z,16.40
2022-10-17T06:30:10.318Z,16.30
2022-10-17T06:32:37.143Z,16.30
2022-10-17T06:35:04.087Z,16.20
2022-10-17T06:37:36.272Z,16.10
2022-10-17T06:40:04.315Z,16.10
2022-10-17T06:42:30.992Z,16.10
2022-10-17T06:44:57.722Z,16.10
2022-10-17T06:47:24.450Z,16.10
2022-10-17T06:49:51.218Z,16.10
2022-10-17T06:52:17.961Z,16.10
2022-10-17T06:54:44.936Z,16.20
2022-10-17T06:57:11.747Z,16.30
2022-10-17T06:59:38.509Z,16.50
2022-10-17T07:02:06.380Z,16.70
2022-10-17T07:04:33.249Z,16.80
2022-10-17T07:07:02.925Z,17.00
2022-10-17T07:09:31.244Z,17.20
2022-10-17T07:11:58.777Z,17.50
2022-10-17T07:14:31.830Z,17.60
2022-10-17T07:16:59.467Z,17.80
2022-10-17T07:19:27.103Z,18.00
2022-10-17T07:21:54.192Z,18.20
2022-10-17T07:24:20.975Z,18.40
2022-10-17T07:26:47.801Z,18.50
2022-10-17T07:29:14.521Z,18.60
2022-10-17T07:31:41.346Z,18.70
2022-10-17T07:34:08.153Z,18.80
2022-10-17T07:36:34.810Z,19.00
2022-10-17T07:39:01.499Z,19.00
2022-10-17T07:41:28.239Z,19.00
2022-10-17T07:43:55.723Z,19.10
2022-10-17T07:46:22.409Z,19.20
2022-10-17T07:48:49.369Z,19.30
2022-10-17T07:51:17.651Z,19.30
2022-10-17T07:53:48.063Z,19.30
2022-10-17T07:56:15.943Z,19.30
2022-10-17T07:58:42.871Z,19.30
2022-10-17T08:01:15.427Z,19.40
2022-10-17T08:03:44.367Z,19.40
2022-10-17T08:06:11.217Z,19.50
2022-10-17T08:08:38.273Z,19.50
2022-10-17T08:11:08.946Z,19.50
2022-10-17T08:13:36.652Z,19.50
2022-10-17T08:16:07.235Z,19.60
2022-10-17T08:18:34.867Z,19.70
2022-10-17T08:21:02.909Z,19.90
2022-10-17T08:23:29.887Z,20.10
2022-10-17T08:25:59.999Z,20.20
2022-10-17T08:28:26.827Z,20.20
2022-10-17T08:30:53.638Z,20.30
2022-10-17T08:33:20.320Z,20.30
2022-10-17T08:35:47.148Z,20.40
2022-10-17T08:38:14.161Z,20.50
2022-10-17T08:40:42.887Z,20.50
2022-10-17T08:43:35.647Z,20.60
2022-10-17T08:46:05.469Z,20.70
2022-10-17T08:48:36.809Z,20.80
2022-10-17T08:51:12.078Z,20.80
2022-10-17T08:53:43.540Z,20.90
2022-10-17T08:56:25.002Z,21.00
2022-10-17T08:59:13.392Z,21.00
2022-10-17T09:02:09.410Z,21.10
2022-10-17T09:04:36.192Z,21.10
2022-10-17T09:07:19.059Z,21.20
2022-10-17T09:09:51.274Z,21.30
2022-10-17T09:12:22.926Z,21.40
2022-10-17T09:15:17.012Z,21.60
2022-10-17T09:17:58.631Z,21.80
2022-10-17T09:20:31.438Z,22.00
2022-10-17T09:23:14.078Z,22.10
2022-10-17T09:25:49.381Z,22.20
2022-10-17T09:28:29.639Z,22.20
2022-10-17T09:31:16.909Z,22.30
2022-10-17T09:34:00.732Z,22.50
2022-10-17T09:36:36.845Z,22.70
2022-10-17T09:39:06.424Z,22.70
2022-10-17T09:41:47.251Z,22.70
2022-10-17T09:44:18.660Z,22.90
2022-10-17T09:46:53.587Z,23.00
2022-10-17T09:49:29.355Z,23.00
2022-10-17T09:51:56.307Z,23.30
2022-10-17T09:54:27.138Z,23.10
2022-10-17T09:57:05.980Z,23.30
2022-10-17T09:59:37.001Z,23.30
2022-10-17T10:02:15.967Z,23.40
2022-10-17T10:05:08.532Z,23.50
2022-10-17T10:07:39.251Z,23.50
2022-10-17T10:10:08.823Z,23.50
2022-10-17T10:12:38.424Z,23.40
2022-10-17T10:15:30.399Z,23.40
2022-10-17T10:17:57.077Z,23.30
2022-10-17T10:20:34.724Z,23.20
2022-10-17T10:23:18.303Z,23.10
2022-10-17T10:26:00.354Z,23.20
2022-10-17T10:28:35.849Z,23.10
2022-10-17T10:31:05.257Z,23.10
2022-10-17T10:33:40.393Z,22.90
2022-10-17T10:36:09.085Z,22.80
2022-10-17T10:38:39.517Z,22.70
2022-10-17T10:41:08.404Z,22.50
2022-10-17T10:43:47.087Z,22.50
2022-10-17T10:46:19.894Z,22.40
2022-10-17T10:48:55.571Z,22.50
2022-10-17T10:51:43.812Z,22.40
2022-10-17T10:54:17.418Z,22.40
2022-10-17T10:56:49.878Z,22.50
2022-10-17T10:59:39.862Z,22.60
2022-10-17T11:02:15.760Z,22.50
2022-10-17T11:05:03.915Z,22.50
2022-10-17T11:07:38.934Z,22.50
2022-10-17T11:10:45.860Z,22.60
2022-10-17T11:13:15.523Z,22.70
2022-10-17T11:15:52.295Z,22.70
2022-10-17T11:18:37.864Z,22.80
2022-10-17T11:21:16.093Z,22.90
2022-10-17T11:23:59.480Z,22.90
2022-10-17T11:26:33.782Z,22.90
2022-10-17T11:29:03.582Z,22.90
2022-10-17T11:31:37.370Z,23.00
2022-10-17T11:34:43.786Z,23.10
2022-10-17T11:37:20.809Z,23.00
2022-10-17T11:39:52.161Z,23.00
2022-10-17T11:42:24.778Z,23.10
2022-10-17T11:44:56.276Z,23.00
2022-10-17T11:47:34.526Z,23.10
2022-10-17T11:53:30.073Z,22.90
2022-10-17T11:55:58.935Z,22.90
2022-10-17T11:58:37.741Z,22.90
2022-10-17T12:01:23.741Z,23.00
2022-10-17T12:04:12.787Z,22.90
2022-10-17T12:06:39.473Z,22.90
2022-10-17T12:09:16.703Z,22.80
2022-10-17T12:12:01.035Z,22.80
2022-10-17T12:14:37.863Z,22.70
2022-10-17T12:17:24.250Z,22.70
2022-10-17T12:19:51.188Z,22.70
2022-10-17T12:22:23.395Z,22.70
2022-10-17T12:24:59.044Z,22.60
2022-10-17T12:27:31.958Z,22.60
2022-10-17T12:30:12.483Z,22.50
2022-10-17T12:33:05.545Z,22.50
2022-10-17T12:35:35.936Z,22.50
2022-10-17T12:38:22.799Z,22.40
2022-10-17T12:40:51.823Z,22.40
2022-10-17T12:43:18.510Z,22.40
2022-10-17T12:45:55.773Z,22.40
2022-10-17T12:48:34.647Z,22.40
2022-10-17T12:51:34.406Z,22.30
2022-10-17T12:54:16.464Z,22.40
2022-10-17T12:56:47.988Z,22.40
2022-10-17T12:59:24.481Z,22.30
2022-10-17T13:01:57.763Z,22.30
2022-10-17T13:04:24.915Z,22.30
2022-10-17T13:06:56.652Z,22.30
2022-10-17T13:09:30.269Z,22.30
2022-10-17T13:11:59.542Z,22.20
2022-10-17T13:14:27.289Z,22.20
2022-10-17T13:16:57.902Z,22.10
2022-10-17T13:19:26.990Z,22.10
2022-10-17T13:22:05.962Z,22.20
2022-10-17T13:24:38.527Z,22.20
2022-10-17T13:27:19.766Z,22.10
2022-10-17T13:29:46.600Z,22.00
2022-10-17T13:32:13.369Z,21.80
2022-10-17T13:34:40.139Z,21.70
2022-10-17T13:37:08.652Z,21.50
2022-10-17T13:39:57.997Z,21.50
2022-10-17T13:42:30.461Z,21.50
2022-10-17T13:44:58.056Z,21.50
2022-10-17T13:47:29.915Z,21.60
2022-10-17T13:49:57.898Z,21.60
2022-10-17T13:52:27.972Z,21.70
2022-10-17T13:54:55.655Z,21.70
2022-10-17T13:57:31.311Z,21.70
2022-10-17T14:00:09.945Z,21.80
2022-10-17T14:02:40.531Z,22.00
2022-10-17T14:05:18.165Z,21.90
2022-10-17T14:08:20.175Z,21.90
2022-10-17T14:10:46.502Z,21.90
2022-10-17T14:13:22.772Z,22.00
2022-10-17T14:15:50.186Z,22.00
2022-10-17T14:18:33.239Z,22.00
2022-10-17T14:23:51.269Z,22.00
2022-10-17T14:26:21.420Z,22.00
2022-10-17T14:29:06.900Z,22.00
2022-10-17T14:31:35.583Z,22.00
2022-10-17T14:34:03.586Z,22.00
2022-10-17T14:36:33.387Z,22.00
2022-10-17T14:39:00.559Z,21.90
2022-10-17T14:41:42.544Z,22.00
2022-10-17T14:44:26.591Z,21.90
2022-10-17T14:46:59.519Z,21.80
2022-10-17T14:49:38.497Z,21.80
2022-10-17T14:52:24.709Z,21.70
2022-10-17T14:54:51.500Z,21.60
2022-10-17T14:57:33.625Z,21.50
2022-10-17T15:00:00.282Z,21.50
2022-10-17T15:02:30.130Z,21.50
2022-10-17T15:04:57.277Z,21.30
2022-10-17T15:07:24.244Z,21.70
2022-10-17T15:09:52.693Z,21.30
2022-10-17T15:12:25.132Z,21.20
2022-10-17T15:14:52.936Z,21.20
2022-10-17T15:17:26.041Z,21.10
2022-10-17T15:19:53.352Z,21.10
2022-10-17T15:22:20.499Z,21.00
2022-10-17T15:24:47.291Z,20.90
2022-10-17T15:27:19.775Z,20.90
2022-10-17T15:29:48.176Z,20.90
2022-10-17T15:32:15.390Z,20.80
2022-10-17T15:34:42.348Z,20.80
2022-10-17T15:37:24.589Z,20.70
2022-10-17T15:39:55.551Z,20.70
2022-10-17T15:42:26.338Z,20.60
2022-10-17T15:44:53.282Z,20.60
2022-10-17T15:47:24.577Z,20.60
2022-10-17T15:49:51.460Z,20.50
2022-10-17T15:52:19.089Z,20.40
2022-10-17T15:54:46.326Z,20.40
2022-10-17T15:57:20.382Z,20.40
2022-10-17T15:59:48.364Z,20.30
2022-10-17T16:02:16.227Z,20.20
2022-10-17T16:04:43.802Z,20.10
2022-10-17T16:07:11.269Z,20.00
2022-10-17T16:09:38.123Z,19.90
2022-10-17T16:12:14.280Z,19.90
2022-10-17T16:14:41.750Z,19.70
2022-10-17T16:17:12.816Z,19.60
2022-10-17T16:19:39.509Z,19.50
2022-10-17T16:22:06.656Z,19.40
2022-10-17T16:24:33.441Z,19.30
2022-10-17T16:27:00.137Z,19.20
2022-10-17T16:29:26.874Z,19.20
2022-10-17T16:31:53.600Z,19.10
2022-10-17T16:34:21.150Z,19.00
2022-10-17T16:36:48.291Z,19.00
2022-10-17T16:39:15.370Z,18.90
2022-10-17T16:41:42.548Z,18.80
2022-10-17T16:44:14.441Z,18.80
2022-10-17T16:46:41.173Z,18.70
2022-10-17T16:49:08.234Z,18.60
2022-10-17T16:51:35.909Z,18.60
2022-10-17T16:54:04.477Z,18.60
2022-10-17T16:56:32.753Z,18.50
2022-10-17T16:59:00.523Z,18.50
2022-10-17T17:01:29.364Z,18.40
2022-10-17T17:03:56.730Z,18.40
2022-10-17T17:06:26.695Z,18.30
2022-10-17T17:08:54.279Z,18.20
2022-10-17T17:11:22.539Z,18.20
2022-10-17T17:13:49.931Z,18.10
2022-10-17T17:16:22.279Z,18.00
2022-10-17T17:18:51.953Z,18.00
2022-10-17T17:21:18.634Z,17.80
2022-10-17T17:23:45.596Z,17.90
2022-10-17T17:26:19.125Z,17.80
2022-10-17T17:28:46.659Z,17.70
2022-10-17T17:31:19.194Z,17.70
2022-10-17T17:33:46.920Z,17.70
2022-10-17T17:36:21.000Z,17.60
2022-10-17T17:38:48.668Z,17.60
2022-10-17T17:41:17.635Z,17.50
2022-10-17T17:43:46.022Z,17.50
2022-10-17T17:46:14.553Z,17.50
2022-10-17T17:48:42.507Z,17.40
2022-10-17T17:51:11.467Z,17.40
2022-10-17T17:53:38.742Z,17.50
2022-10-17T17:56:11.075Z,17.40
2022-10-17T17:58:37.781Z,17.30
2022-10-17T18:01:18.960Z,17.30
2022-10-17T18:03:46.812Z,17.30
2022-10-17T18:06:13.935Z,17.60
2022-10-17T18:08:43.195Z,17.30
2022-10-17T18:11:10.130Z,17.40
2022-10-17T18:13:37.075Z,17.20
2022-10-17T18:16:12.592Z,17.60
2022-10-17T18:18:41.534Z,17.30
2022-10-17T18:21:09.471Z,17.30
2022-10-17T18:23:40.185Z,17.50
2022-10-17T18:26:07.387Z,17.30
2022-10-17T18:28:39.039Z,17.20
2022-10-17T18:31:24.353Z,17.30
2022-10-17T18:33:52.924Z,17.20
2022-10-17T18:36:20.132Z,17.30
2022-10-17T18:38:46.896Z,17.20
2022-10-17T18:41:15.659Z,17.30
2022-10-17T18:43:43.936Z,17.30
2022-10-17T18:46:17.920Z,17.20
2022-10-17T18:48:45.898Z,17.10
2022-10-17T18:51:14.445Z,17.10
2022-10-17T18:53:43.591Z,17.10
2022-10-17T18:56:11.017Z,17.00
2022-10-17T18:58:39.428Z,17.00
2022-10-17T19:01:09.491Z,17.00
2022-10-17T19:03:37.092Z,17.10
2022-10-17T19:06:09.166Z,17.10
2022-10-17T19:08:37.060Z,17.10
2022-10-17T19:11:14.989Z,17.10
2022-10-17T19:13:42.462Z,17.10
2022-10-17T19:16:20.950Z,17.20
2022-10-17T19:18:52.256Z,17.10
2022-10-17T19:21:21.853Z,17.10
2022-10-17T19:24:00.260Z,17.10
2022-10-17T19:26:28.579Z,17.00
2022-10-17T19:28:55.509Z,17.10
2022-10-17T19:31:27.216Z,17.00
2022-10-17T19:33:55.460Z,17.10
2022-10-17T19:36:27.533Z,17.10
2022-10-17T19:38:57.899Z,17.00
2022-10-17T19:41:25.287Z,17.00
2022-10-17T19:43:52.032Z,17.00
2022-10-17T19:46:23.695Z,17.00
2022-10-17T19:48:50.764Z,17.00
2022-10-17T19:51:19.941Z,17.00
2022-10-17T19:53:47.412Z,17.00
2022-10-17T19:56:18.452Z,17.00
2022-10-17T19:58:46.479Z,17.00
2022-10-17T20:01:16.342Z,17.00
2022-10-17T20:03:43.162Z,17.00
2022-10-17T20:06:10.625Z,16.90
2022-10-17T20:08:38.848Z,16.90
2022-10-17T20:11:07.800Z,16.90
2022-10-17T20:13:36.393Z,16.90
2022-10-17T20:16:03.395Z,16.80
2022-10-17T20:18:30.257Z,16.80
2022-10-17T20:21:04.324Z,16.80
2022-10-17T20:23:31.053Z,16.80
2022-10-17T20:26:06.614Z,16.80
2022-10-17T20:28:40.584Z,16.90
2022-10-17T20:31:08.920Z,17.00
2022-10-17T20:33:35.689Z,16.90
2022-10-17T20:36:06.363Z,17.10
2022-10-17T20:38:33.807Z,17.10
2022-10-17T20:41:05.851Z,17.30
2022-10-17T20:43:33.393Z,17.20
2022-10-17T20:46:09.633Z,17.20
2022-10-17T20:48:51.578Z,17.20
2022-10-17T20:51:18.565Z,17.30
2022-10-17T20:53:45.379Z,17.30
2022-10-17T20:56:24.275Z,17.30
2022-10-17T20:58:55.869Z,17.40
2022-10-17T21:01:23.474Z,17.40
2022-10-17T21:03:50.694Z,17.40
2022-10-17T21:06:18.265Z,17.50
2022-10-17T21:08:46.105Z,17.50
2022-10-17T21:11:19.668Z,17.40
2022-10-17T21:13:47.580Z,17.50
2022-10-17T21:16:18.638Z,17.50
2022-10-17T21:18:45.931Z,17.50
2022-10-17T21:21:26.598Z,17.50
2022-10-17T21:23:55.696Z,17.50
2022-10-17T21:26:22.748Z,17.50
2022-10-17T21:28:50.200Z,17.50
2022-10-17T21:31:26.909Z,17.50
2022-10-17T21:33:56.125Z,17.50
2022-10-17T21:36:24.303Z,17.50
2022-10-17T21:38:53.692Z,17.50
2022-10-17T21:41:22.156Z,17.50
2022-10-17T21:43:52.753Z,17.50
2022-10-17T21:46:19.837Z,17.50
2022-10-17T21:48:48.093Z,17.50
2022-10-17T21:51:16.601Z,17.50
2022-10-17T21:53:43.809Z,17.50
2022-10-17T21:56:12.966Z,17.50
2022-10-17T21:58:40.188Z,17.50
2022-10-17T22:01:09.821Z,17.40
2022-10-17T22:03:41.413Z,17.40
2022-10-17T22:06:38.679Z,17.40
2022-10-17T22:08:58.813Z,17.40
2022-10-17T22:11:34.563Z,17.40
2022-10-17T22:14:04.101Z,17.30
2022-10-17T22:16:31.005Z,17.30
2022-10-17T22:19:05.839Z,17.30
2022-10-17T22:21:34.798Z,17.30
2022-10-17T22:24:03.994Z,17.30
2022-10-17T22:26:32.219Z,17.20
2022-10-17T22:28:59.340Z,17.20
2022-10-17T22:31:26.454Z,17.20
2022-10-17T22:33:53.721Z,17.20
2022-10-17T22:36:20.492Z,17.20
2022-10-17T22:38:47.922Z,17.40
2022-10-17T22:41:14.716Z,17.10
2022-10-17T22:43:41.436Z,17.10
2022-10-17T22:46:08.668Z,17.10
2022-10-17T22:48:35.485Z,17.10
2022-10-17T22:51:02.561Z,17.20
2022-10-17T22:53:29.982Z,17.20
2022-10-17T22:56:01.699Z,17.20
2022-10-17T22:58:30.232Z,17.20
2022-10-17T23:00:57.757Z,17.20
2022-10-17T23:03:26.707Z,17.10
2022-10-17T23:05:53.868Z,17.10
2022-10-17T23:08:20.972Z,17.20
2022-10-17T23:10:48.355Z,17.20
2022-10-17T23:13:15.693Z,17.10
2022-10-17T23:15:43.057Z,17.10
2022-10-17T23:18:10.037Z,17.10
2022-10-17T23:20:37.636Z,17.10
2022-10-17T23:23:04.751Z,17.20
2022-10-17T23:25:33.814Z,17.10
2022-10-17T23:28:01.138Z,17.10
2022-10-17T23:30:27.842Z,17.20
2022-10-17T23:32:54.543Z,17.10
2022-10-17T23:35:21.267Z,17.10
2022-10-17T23:37:48.017Z,17.10
2022-10-17T23:40:14.735Z,17.10
2022-10-17T23:42:41.494Z,17.20
2022-10-17T23:45:08.771Z,17.10
2022-10-17T23:47:35.699Z,17.10
2022-10-17T23:50:02.709Z,17.10
2022-10-17T23:52:31.597Z,17.10
2022-10-17T23:54:58.341Z,17.10
2022-10-17T23:57:25.078Z,17.10
2022-10-17T23:59:51.800Z,17.20
